createdAt,value
2017-11-20T00:01:45.068Z,94239.50
2017-11-20T00:04:12.810Z,94248.94
2017-11-20T00:06:40.543Z,94252.83
2017-11-20T00:09:08.244Z,94252.70
2017-11-20T00:11:36.000Z,94247.61
2017-11-20T00:14:03.695Z,94244.73
2017-11-20T00:16:31.469Z,94248.25
2017-11-20T00:18:59.169Z,94244.97
2017-11-20T00:21:26.895Z,94241.73
2017-11-20T00:23:54.574Z,94238.09
2017-11-20T00:26:22.337Z,94237.20
2017-11-20T00:28:50.088Z,94240.17
2017-11-20T00:31:17.866Z,94243.53
2017-11-20T00:33:46.345Z,94237.77
2017-11-20T00:36:14.031Z,94225.42
2017-11-20T00:38:41.708Z,94231.45
2017-11-20T00:41:09.427Z,94227.69
2017-11-20T00:43:37.100Z,94229.05
2017-11-20T00:46:04.827Z,94234.14
2017-11-20T00:48:32.568Z,94237.69
2017-11-20T00:51:00.314Z,94236.32
2017-11-20T00:53:28.014Z,94241.52
2017-11-20T00:55:55.763Z,94241.61
2017-11-20T00:58:23.478Z,94242.56
2017-11-20T01:00:51.246Z,94243.18
2017-11-20T01:03:18.991Z,94238.53
2017-11-20T01:05:46.795Z,94240.80
2017-11-20T01:08:14.490Z,94242.97
2017-11-20T01:10:42.243Z,94222.01
2017-11-20T01:13:09.946Z,94238.41
2017-11-20T01:15:37.697Z,94250.22
2017-11-20T01:18:05.408Z,94248.01
2017-11-20T01:20:33.065Z,94250.33
2017-11-20T01:23:00.736Z,94242.66
2017-11-20T01:25:28.454Z,94245.45
2017-11-20T01:27:56.145Z,94243.28
2017-11-20T01:30:23.833Z,94239.82
2017-11-20T01:32:51.562Z,94254.22
2017-11-20T01:35:19.323Z,94253.19
2017-11-20T01:37:47.011Z,94243.26
2017-11-20T01:40:14.870Z,94250.89
2017-11-20T01:42:42.564Z,94249.81
2017-11-20T01:45:10.253Z,94241.26
2017-11-20T01:47:37.999Z,94250.30
2017-11-20T01:50:05.702Z,94250.94
2017-11-20T01:52:33.432Z,94249.09
2017-11-20T01:55:01.172Z,94251.69
2017-11-20T01:57:28.851Z,94249.93
2017-11-20T01:59:56.557Z,94246.86
2017-11-20T02:02:25.375Z,94258.48
2017-11-20T02:04:53.100Z,94259.44
2017-11-20T02:07:20.819Z,94245.98
2017-11-20T02:09:48.571Z,94243.12
2017-11-20T02:12:16.276Z,94241.18
2017-11-20T02:14:44.034Z,94253.98
2017-11-20T02:17:11.783Z,94246.94
2017-11-20T02:19:39.557Z,94260.47
2017-11-20T02:22:07.288Z,94254.67
2017-11-20T02:24:35.002Z,94248.30
2017-11-20T02:27:02.793Z,94240.70
2017-11-20T02:29:30.565Z,94245.90
2017-11-20T02:31:58.346Z,94248.14
2017-11-20T02:34:26.077Z,94243.50
2017-11-20T02:36:53.882Z,94245.50
2017-11-20T02:39:21.590Z,94254.63
2017-11-20T02:41:49.381Z,94251.98
2017-11-20T02:44:17.176Z,94248.25
2017-11-20T02:46:44.964Z,94253.73
2017-11-20T02:49:12.817Z,94253.02
2017-11-20T02:51:40.571Z,94247.27
2017-11-20T02:54:08.335Z,94256.70
2017-11-20T02:56:36.115Z,94251.82
2017-11-20T02:59:03.859Z,94254.55
2017-11-20T03:01:31.634Z,94254.55
2017-11-20T03:03:59.346Z,94265.50
2017-11-20T03:06:27.064Z,94261.19
2017-11-20T03:08:54.812Z,94254.14
2017-11-20T03:11:22.565Z,94263.98
2017-11-20T03:13:50.291Z,94269.59
2017-11-20T03:16:18.014Z,94262.33
2017-11-20T03:18:45.774Z,94265.50
2017-11-20T03:21:13.512Z,94268.70
2017-11-20T03:23:41.269Z,94260.83
2017-11-20T03:26:09.125Z,94245.98
2017-11-20T03:28:36.844Z,94249.10
2017-11-20T03:31:04.602Z,94265.42
2017-11-20T03:33:32.380Z,94263.02
2017-11-20T03:36:00.058Z,94263.83
2017-11-20T03:38:27.833Z,94266.14
2017-11-20T03:40:55.606Z,94276.16
2017-11-20T03:43:23.507Z,94260.41
2017-11-20T03:45:51.317Z,94271.04
2017-11-20T03:48:19.013Z,94286.56
2017-11-20T03:50:46.779Z,94264.72
2017-11-20T03:53:14.483Z,94260.88
2017-11-20T03:55:42.250Z,94266.64
2017-11-20T03:58:09.935Z,94254.25
2017-11-20T04:00:37.617Z,94249.93
2017-11-20T04:03:05.332Z,94251.20
2017-11-20T04:05:33.072Z,94242.32
2017-11-20T04:08:00.806Z,94246.96
2017-11-20T04:10:28.606Z,94246.17
2017-11-20T04:12:56.327Z,94253.58
2017-11-20T04:15:24.091Z,94264.86
2017-11-20T04:17:52.782Z,94270.15
2017-11-20T04:20:20.522Z,94276.70
2017-11-20T04:22:48.229Z,94274.06
2017-11-20T04:25:15.972Z,94270.30
2017-11-20T04:27:43.672Z,94271.98
2017-11-20T04:30:12.106Z,94268.46
2017-11-20T04:32:40.097Z,94271.59
2017-11-20T04:35:07.811Z,94276.78
2017-11-20T04:37:35.587Z,94269.83
2017-11-20T04:40:03.440Z,94275.27
2017-11-20T04:42:31.326Z,94291.91
2017-11-20T04:44:59.069Z,94289.98
2017-11-20T04:47:27.038Z,94288.06
2017-11-20T04:49:55.524Z,94289.11
2017-11-20T04:52:23.233Z,94294.69
2017-11-20T04:54:50.908Z,94297.33
2017-11-20T04:57:18.649Z,94295.04
2017-11-20T04:59:46.375Z,94302.38
2017-11-20T05:02:14.136Z,94295.75
2017-11-20T05:04:41.994Z,94298.39
2017-11-20T05:07:09.729Z,94300.95
2017-11-20T05:09:37.425Z,94304.96
2017-11-20T05:12:05.160Z,94304.80
2017-11-20T05:14:32.837Z,94317.52
2017-11-20T05:17:00.569Z,94323.19
2017-11-20T05:19:28.290Z,94322.25
2017-11-20T05:21:55.965Z,94327.98
2017-11-20T05:24:23.769Z,94328.48
2017-11-20T05:26:51.455Z,94328.46
2017-11-20T05:29:20.431Z,94335.44
2017-11-20T05:31:48.102Z,94340.64
2017-11-20T05:34:15.854Z,94336.80
2017-11-20T05:36:43.518Z,94330.23
2017-11-20T05:39:11.209Z,94336.01
2017-11-20T05:41:38.919Z,94340.16
2017-11-20T05:44:06.836Z,94342.17
2017-11-20T05:46:34.538Z,94343.38
2017-11-20T05:49:02.257Z,94347.94
2017-11-20T05:51:29.975Z,94352.80
2017-11-20T05:53:57.643Z,94358.81
2017-11-20T05:56:25.405Z,94364.02
2017-11-20T05:58:53.113Z,94367.28
2017-11-20T06:01:20.846Z,94377.15
2017-11-20T06:03:48.558Z,94377.85
2017-11-20T06:06:16.307Z,94382.98
2017-11-20T06:08:43.977Z,94377.77
2017-11-20T06:11:11.812Z,94383.70
2017-11-20T06:13:39.497Z,94386.51
2017-11-20T06:16:07.241Z,94398.98
2017-11-20T06:18:34.974Z,94398.91
2017-11-20T06:21:03.465Z,94399.08
2017-11-20T06:23:31.271Z,94408.27
2017-11-20T06:25:58.983Z,94394.58
2017-11-20T06:28:26.726Z,94407.87
2017-11-20T06:30:54.594Z,94406.82
2017-11-20T06:33:22.277Z,94412.27
2017-11-20T06:35:49.981Z,94401.60
2017-11-20T06:38:17.719Z,94405.55
2017-11-20T06:40:45.394Z,94405.07
2017-11-20T06:43:13.140Z,94405.95
2017-11-20T06:45:40.895Z,94405.22
2017-11-20T06:48:08.641Z,94413.06
2017-11-20T06:50:36.394Z,94414.59
2017-11-20T06:53:04.135Z,94415.95
2017-11-20T06:55:31.844Z,94416.76
2017-11-20T06:57:59.552Z,94416.94
2017-11-20T07:00:27.270Z,94416.61
2017-11-20T07:02:54.963Z,94412.66
2017-11-20T07:05:22.676Z,94421.39
2017-11-20T07:07:50.347Z,94414.84
2017-11-20T07:10:18.076Z,94425.58
2017-11-20T07:12:45.781Z,94426.92
2017-11-20T07:15:13.523Z,94429.33
2017-11-20T07:17:41.207Z,94435.31
2017-11-20T07:20:08.944Z,94441.09
2017-11-20T07:22:36.663Z,94438.03
2017-11-20T07:28:03.645Z,94436.13
2017-11-20T07:30:43.032Z,94441.66
2017-11-20T07:33:10.742Z,94437.34
2017-11-20T07:35:42.352Z,94436.78
2017-11-20T07:38:17.955Z,94437.09
2017-11-20T07:40:57.381Z,94432.69
2017-11-20T07:43:25.064Z,94430.87
2017-11-20T07:45:52.842Z,94430.77
2017-11-20T07:48:20.592Z,94419.81
2017-11-20T07:50:48.494Z,94433.01
2017-11-20T07:53:16.231Z,94432.30
2017-11-20T07:55:43.997Z,94435.27
2017-11-20T07:58:11.659Z,94445.84
2017-11-20T08:00:39.432Z,94436.55
2017-11-20T08:03:07.182Z,94451.42
2017-11-20T08:05:34.917Z,94442.45
2017-11-20T08:08:02.710Z,94434.22
2017-11-20T08:10:30.472Z,94444.69
2017-11-20T08:12:58.190Z,94439.41
2017-11-20T08:15:25.866Z,94450.38
2017-11-20T08:17:53.706Z,94455.56
2017-11-20T08:20:21.406Z,94450.48
2017-11-20T08:22:49.113Z,94450.00
2017-11-20T08:25:18.092Z,94453.77
2017-11-20T08:27:45.975Z,94451.84
2017-11-20T08:30:13.918Z,94447.44
2017-11-20T08:32:41.725Z,94456.65
2017-11-20T08:35:10.466Z,94453.24
2017-11-20T08:37:38.385Z,94450.83
2017-11-20T08:40:06.155Z,94461.49
2017-11-20T08:42:33.856Z,94469.16
2017-11-20T08:45:01.858Z,94463.66
2017-11-20T08:47:29.675Z,94467.22
2017-11-20T08:49:57.448Z,94468.78
2017-11-20T08:52:25.213Z,94476.53
2017-11-20T08:54:53.021Z,94474.32
2017-11-20T08:57:20.753Z,94473.05
2017-11-20T08:59:49.406Z,94473.77
2017-11-20T09:02:17.150Z,94475.37
2017-11-20T09:04:44.891Z,94473.88
2017-11-20T09:07:12.634Z,94474.50
2017-11-20T09:09:40.461Z,94475.25
2017-11-20T09:12:08.327Z,94472.58
2017-11-20T09:14:36.021Z,94480.37
2017-11-20T09:17:03.768Z,94486.62
2017-11-20T09:19:31.579Z,94484.44
2017-11-20T09:21:59.328Z,94488.08
2017-11-20T09:24:27.140Z,94489.81
2017-11-20T09:26:54.897Z,94493.10
2017-11-20T09:29:22.660Z,94493.18
2017-11-20T09:31:50.522Z,94489.01
2017-11-20T09:34:18.260Z,94493.67
2017-11-20T09:36:45.995Z,94493.17
2017-11-20T09:39:13.733Z,94484.94
2017-11-20T09:41:41.464Z,94495.77
2017-11-20T09:44:09.281Z,94489.64
2017-11-20T09:46:37.089Z,94496.20
2017-11-20T09:49:04.957Z,94498.27
2017-11-20T09:51:32.753Z,94491.25
2017-11-20T09:54:00.570Z,94497.59
2017-11-20T09:56:28.372Z,94500.19
2017-11-20T09:58:56.293Z,94493.13
2017-11-20T10:01:24.036Z,94490.38
2017-11-20T10:03:51.815Z,94488.84
2017-11-20T10:06:19.734Z,94488.08
2017-11-20T10:08:47.467Z,94484.92
2017-11-20T10:11:15.224Z,94485.54
2017-11-20T10:13:43.022Z,94479.26
2017-11-20T10:16:10.800Z,94491.89
2017-11-20T10:18:38.633Z,94481.59
2017-11-20T10:21:06.667Z,94473.87
2017-11-20T10:23:34.511Z,94472.95
2017-11-20T10:26:02.245Z,94463.73
2017-11-20T10:28:30.017Z,94468.05
2017-11-20T10:30:57.871Z,94471.11
2017-11-20T10:33:25.654Z,94471.30
2017-11-20T10:35:53.478Z,94472.26
2017-11-20T10:38:21.234Z,94461.39
2017-11-20T10:40:49.009Z,94458.79
2017-11-20T10:43:16.772Z,94456.72
2017-11-20T10:45:44.583Z,94458.63
2017-11-20T10:48:12.409Z,94448.48
2017-11-20T10:50:40.350Z,94443.16
2017-11-20T10:53:08.213Z,94453.02
2017-11-20T10:55:35.954Z,94454.22
2017-11-20T10:58:03.766Z,94445.59
2017-11-20T11:00:31.545Z,94441.69
2017-11-20T11:02:59.332Z,94445.67
2017-11-20T11:05:27.104Z,94433.30
2017-11-20T11:07:54.844Z,94440.09
2017-11-20T11:10:22.591Z,94427.64
2017-11-20T11:12:50.527Z,94427.64
2017-11-20T11:15:18.276Z,94428.92
2017-11-20T11:17:46.033Z,94417.91
2017-11-20T11:20:13.838Z,94416.94
2017-11-20T11:22:41.634Z,94425.49
2017-11-20T11:25:09.420Z,94412.03
2017-11-20T11:27:37.213Z,94412.84
2017-11-20T11:30:04.988Z,94407.85
2017-11-20T11:32:32.843Z,94398.99
2017-11-20T11:35:01.633Z,94395.53
2017-11-20T11:37:29.435Z,94392.84
2017-11-20T11:39:57.178Z,94388.06
2017-11-20T11:42:25.015Z,94388.25
2017-11-20T11:44:53.207Z,94388.73
2017-11-20T11:47:21.042Z,94383.14
2017-11-20T11:49:49.264Z,94388.85
2017-11-20T11:52:17.044Z,94387.62
2017-11-20T11:54:44.773Z,94382.77
2017-11-20T11:57:12.502Z,94375.48
2017-11-20T11:59:40.344Z,94380.98
2017-11-20T12:02:08.934Z,94371.47
2017-11-20T12:04:36.746Z,94368.94
2017-11-20T12:07:06.903Z,94373.87
2017-11-20T12:09:34.692Z,94363.70
2017-11-20T12:12:02.458Z,94362.95
2017-11-20T12:14:30.269Z,94360.95
2017-11-20T12:16:58.104Z,94365.69
2017-11-20T12:19:25.827Z,94359.67
2017-11-20T12:21:53.684Z,94361.37
2017-11-20T12:24:21.519Z,94366.05
2017-11-20T12:26:49.839Z,94361.09
2017-11-20T12:29:17.648Z,94360.13
2017-11-20T12:31:45.489Z,94356.44
2017-11-20T12:34:13.235Z,94348.77
2017-11-20T12:36:41.002Z,94359.75
2017-11-20T12:39:08.848Z,94350.65
2017-11-20T12:41:36.661Z,94341.20
2017-11-20T12:44:04.428Z,94338.66
2017-11-20T12:46:32.398Z,94343.41
2017-11-20T12:49:00.207Z,94343.88
2017-11-20T12:51:28.039Z,94340.67
2017-11-20T12:53:56.215Z,94344.72
2017-11-20T12:56:23.991Z,94332.42
2017-11-20T12:58:51.809Z,94349.38
2017-11-20T13:01:19.631Z,94345.39
2017-11-20T13:03:47.450Z,94353.91
2017-11-20T13:06:15.249Z,94347.70
2017-11-20T13:08:43.001Z,94353.33
2017-11-20T13:11:11.709Z,94342.46
2017-11-20T13:13:39.532Z,94344.95
2017-11-20T13:16:07.379Z,94340.30
2017-11-20T13:18:35.156Z,94332.56
2017-11-20T13:21:03.026Z,94338.27
2017-11-20T13:23:30.814Z,94335.58
2017-11-20T13:25:59.806Z,94328.23
2017-11-20T13:28:27.686Z,94330.23
2017-11-20T13:30:55.514Z,94331.55
2017-11-20T13:33:23.280Z,94319.79
2017-11-20T13:35:52.108Z,94319.00
2017-11-20T13:38:19.872Z,94318.69
2017-11-20T13:40:47.727Z,94321.80
2017-11-20T13:43:15.578Z,94322.47
2017-11-20T13:45:43.348Z,94317.13
2017-11-20T13:48:11.121Z,94309.30
2017-11-20T13:50:39.836Z,94312.11
2017-11-20T13:53:07.656Z,94314.37
2017-11-20T13:55:35.513Z,94312.19
2017-11-20T13:58:03.390Z,94312.49
2017-11-20T14:00:31.220Z,94308.44
2017-11-20T14:02:59.059Z,94307.44
2017-11-20T14:05:27.004Z,94305.83
2017-11-20T14:07:54.967Z,94310.42
2017-11-20T14:10:22.836Z,94303.61
2017-11-20T14:12:50.642Z,94303.88
2017-11-20T14:15:18.558Z,94305.67
2017-11-20T14:17:46.473Z,94315.98
2017-11-20T14:20:14.389Z,94318.11
2017-11-20T14:22:42.216Z,94309.78
2017-11-20T14:25:10.007Z,94301.09
2017-11-20T14:27:37.810Z,94295.16
2017-11-20T14:30:05.616Z,94290.64
2017-11-20T14:32:33.459Z,94296.70
2017-11-20T14:35:01.326Z,94294.34
2017-11-20T14:37:29.235Z,94288.98
2017-11-20T14:39:57.102Z,94289.38
2017-11-20T14:42:24.875Z,94287.55
2017-11-20T14:44:52.686Z,94287.77
2017-11-20T14:47:20.586Z,94291.60
2017-11-20T14:49:50.259Z,94288.17
2017-11-20T14:52:18.838Z,94289.93
2017-11-20T14:54:47.948Z,94287.89
2017-11-20T14:57:15.764Z,94290.80
2017-11-20T14:59:43.654Z,94294.63
2017-11-20T15:02:11.529Z,94290.17
2017-11-20T15:04:39.427Z,94300.50
2017-11-20T15:07:08.067Z,94296.28
2017-11-20T15:09:35.956Z,94298.06
2017-11-20T15:12:03.886Z,94289.61
2017-11-20T15:14:31.712Z,94292.84
2017-11-20T15:16:59.591Z,94288.04
2017-11-20T15:19:27.505Z,94293.94
2017-11-20T15:21:55.395Z,94289.89
2017-11-20T15:24:23.434Z,94289.49
2017-11-20T15:26:51.359Z,94290.03
2017-11-20T15:29:19.222Z,94295.05
2017-11-20T15:31:46.978Z,94293.36
2017-11-20T15:34:14.889Z,94295.31
2017-11-20T15:36:42.803Z,94291.89
2017-11-20T15:39:10.642Z,94301.89
2017-11-20T15:41:38.670Z,94300.55
2017-11-20T15:44:06.450Z,94298.41
2017-11-20T15:46:34.195Z,94298.22
2017-11-20T15:49:02.031Z,94299.53
2017-11-20T15:51:29.760Z,94299.18
2017-11-20T15:53:57.541Z,94305.17
2017-11-20T15:56:25.208Z,94298.38
2017-11-20T15:58:53.047Z,94310.96
2017-11-20T16:01:20.829Z,94313.09
2017-11-20T16:03:48.962Z,94312.14
2017-11-20T16:06:16.767Z,94315.95
2017-11-20T16:08:44.583Z,94312.52
2017-11-20T16:11:12.304Z,94320.27
2017-11-20T16:13:40.118Z,94315.55
2017-11-20T16:16:07.894Z,94316.41
2017-11-20T16:18:35.758Z,94308.33
2017-11-20T16:21:03.578Z,94310.55
2017-11-20T16:23:31.384Z,94320.14
2017-11-20T16:25:59.373Z,94319.02
2017-11-20T16:28:27.219Z,94313.97
2017-11-20T16:30:55.143Z,94312.74
2017-11-20T16:33:23.916Z,94309.13
2017-11-20T16:35:53.705Z,94309.39
2017-11-20T16:38:21.495Z,94313.25
2017-11-20T16:40:49.206Z,94300.71
2017-11-20T16:43:17.148Z,94305.69
2017-11-20T16:45:44.971Z,94303.77
2017-11-20T16:48:12.758Z,94306.02
2017-11-20T16:50:40.507Z,94306.34
2017-11-20T16:53:09.802Z,94307.75
2017-11-20T16:55:38.572Z,94305.75
2017-11-20T17:01:08.609Z,94291.34
2017-11-20T17:03:38.553Z,94301.66
2017-11-20T17:06:07.996Z,94295.71
2017-11-20T17:08:36.347Z,94295.30
2017-11-20T17:11:04.746Z,94284.08
2017-11-20T17:13:34.767Z,94286.09
2017-11-20T17:16:03.484Z,94291.61
2017-11-20T17:18:33.472Z,94298.55
2017-11-20T17:21:01.851Z,94298.75
2017-11-20T17:23:29.976Z,94291.08
2017-11-20T17:25:58.449Z,94294.52
2017-11-20T17:28:26.710Z,94293.34
2017-11-20T17:30:54.660Z,94300.42
2017-11-20T17:33:22.506Z,94281.95
2017-11-20T17:35:50.392Z,94286.14
2017-11-20T17:38:18.432Z,94281.77
2017-11-20T17:40:46.504Z,94286.88
2017-11-20T17:43:14.286Z,94271.09
2017-11-20T17:45:42.710Z,94272.27
2017-11-20T17:48:10.562Z,94268.23
2017-11-20T17:50:38.386Z,94275.20
2017-11-20T17:53:06.153Z,94269.72
2017-11-20T17:55:34.056Z,94267.35
2017-11-20T17:58:01.961Z,94271.19
2017-11-20T18:00:29.769Z,94262.72
2017-11-20T18:02:57.612Z,94259.09
2017-11-20T18:05:25.433Z,94254.92
2017-11-20T18:07:53.271Z,94261.73
2017-11-20T18:10:21.024Z,94255.66
2017-11-20T18:12:48.814Z,94259.59
2017-11-20T18:15:16.714Z,94266.42
2017-11-20T18:17:44.554Z,94260.89
2017-11-20T18:20:12.504Z,94263.52
2017-11-20T18:22:40.878Z,94268.98
2017-11-20T18:25:08.740Z,94270.65
2017-11-20T18:27:36.626Z,94274.36
2017-11-20T18:30:04.672Z,94276.92
2017-11-20T18:32:32.570Z,94266.17
2017-11-20T18:35:01.367Z,94268.75
2017-11-20T18:37:29.271Z,94274.29
2017-11-20T18:39:58.173Z,94268.53
2017-11-20T18:42:25.953Z,94275.57
2017-11-20T18:44:53.771Z,94272.69
2017-11-20T18:47:22.400Z,94277.97
2017-11-20T18:49:50.182Z,94279.95
2017-11-20T18:52:18.185Z,94266.34
2017-11-20T18:54:46.496Z,94271.48
2017-11-20T18:57:14.690Z,94272.19
2017-11-20T18:59:42.705Z,94276.20
2017-11-20T19:02:23.274Z,94272.68
2017-11-20T19:05:00.956Z,94272.77
2017-11-20T19:07:40.616Z,94274.92
2017-11-20T19:10:08.542Z,94278.55
2017-11-20T19:12:36.543Z,94285.03
2017-11-20T19:15:04.842Z,94278.44
2017-11-20T19:17:32.758Z,94280.03
2017-11-20T19:20:00.602Z,94276.54
2017-11-20T19:22:30.441Z,94273.10
2017-11-20T19:24:58.354Z,94282.77
2017-11-20T19:27:26.196Z,94271.00
2017-11-20T19:29:54.096Z,94279.88
2017-11-20T19:32:22.301Z,94279.81
2017-11-20T19:34:50.656Z,94280.81
2017-11-20T19:37:18.760Z,94279.30
2017-11-20T19:39:48.132Z,94279.25
2017-11-20T19:42:18.290Z,94284.14
2017-11-20T19:44:46.862Z,94277.25
2017-11-20T19:47:14.748Z,94264.59
2017-11-20T19:49:42.824Z,94268.52
2017-11-20T19:52:12.139Z,94269.64
2017-11-20T19:54:41.097Z,94265.73
2017-11-20T19:57:09.095Z,94262.69
2017-11-20T19:59:37.641Z,94266.91
2017-11-20T20:02:05.646Z,94267.80
2017-11-20T20:04:34.825Z,94267.24
2017-11-20T20:07:02.608Z,94262.27
2017-11-20T20:09:30.563Z,94257.70
2017-11-20T20:11:59.216Z,94261.14
2017-11-20T20:14:32.908Z,94259.36
2017-11-20T20:17:10.775Z,94268.56
2017-11-20T20:19:39.832Z,94257.12
2017-11-20T20:22:08.627Z,94257.04
2017-11-20T20:24:36.819Z,94257.20
2017-11-20T20:27:04.691Z,94248.63
2017-11-20T20:29:32.423Z,94244.72
2017-11-20T20:32:00.419Z,94250.24
2017-11-20T20:34:29.486Z,94237.90
2017-11-20T20:36:59.108Z,94240.08
2017-11-20T20:39:27.268Z,94235.34
2017-11-20T20:41:55.461Z,94234.13
2017-11-20T20:44:23.701Z,94228.56
2017-11-20T20:46:52.359Z,94236.47
2017-11-20T20:49:20.154Z,94242.16
2017-11-20T20:51:47.904Z,94229.80
2017-11-20T20:54:15.681Z,94240.23
2017-11-20T20:56:43.416Z,94241.28
2017-11-20T20:59:11.170Z,94230.13
2017-11-20T21:01:39.104Z,94227.20
2017-11-20T21:04:08.321Z,94227.19
2017-11-20T21:06:41.617Z,94227.16
2017-11-20T21:09:09.477Z,94225.55
2017-11-20T21:11:42.759Z,94226.04
2017-11-20T21:14:10.992Z,94228.61
2017-11-20T21:16:38.771Z,94227.03
2017-11-20T21:19:06.497Z,94226.47
2017-11-20T21:21:34.269Z,94227.03
2017-11-20T21:24:02.306Z,94218.86
2017-11-20T21:26:30.113Z,94218.04
2017-11-20T21:28:57.914Z,94215.71
2017-11-20T21:31:26.597Z,94208.64
2017-11-20T21:33:54.368Z,94215.62
2017-11-20T21:36:22.188Z,94207.16
2017-11-20T21:38:49.936Z,94207.23
2017-11-20T21:41:17.779Z,94202.65
2017-11-20T21:43:46.161Z,94211.45
2017-11-20T21:46:13.901Z,94208.67
2017-11-20T21:48:42.369Z,94211.62
2017-11-20T21:51:10.110Z,94204.59
2017-11-20T21:53:37.901Z,94202.75
2017-11-20T21:56:05.649Z,94207.63
2017-11-20T21:58:33.494Z,94199.47
2017-11-20T22:01:01.397Z,94196.27
2017-11-20T22:03:29.386Z,94197.47
2017-11-20T22:05:57.220Z,94190.11
2017-11-20T22:08:25.095Z,94179.38
2017-11-20T22:10:52.826Z,94180.47
2017-11-20T22:13:29.134Z,94177.20
2017-11-20T22:15:56.985Z,94172.73
2017-11-20T22:18:24.776Z,94172.89
2017-11-20T22:20:52.484Z,94161.36
2017-11-20T22:23:20.390Z,94160.78
2017-11-20T22:25:48.120Z,94163.42
2017-11-20T22:28:15.909Z,94154.77
2017-11-20T22:30:43.703Z,94159.98
2017-11-20T22:33:11.542Z,94155.25
2017-11-20T22:35:39.280Z,94152.05
2017-11-20T22:38:07.851Z,94159.91
2017-11-20T22:40:36.674Z,94159.48
2017-11-20T22:43:04.380Z,94152.45
2017-11-20T22:45:32.145Z,94148.84
2017-11-20T22:47:59.940Z,94160.29
2017-11-20T22:50:28.517Z,94148.94
2017-11-20T22:52:56.236Z,94148.77
2017-11-20T22:55:24.042Z,94157.60
2017-11-20T22:57:51.738Z,94150.19
2017-11-20T23:00:19.469Z,94144.39
2017-11-20T23:02:47.172Z,94147.95
2017-11-20T23:05:14.920Z,94131.58
2017-11-20T23:07:42.671Z,94136.10
2017-11-20T23:10:10.417Z,94135.97
2017-11-20T23:12:38.186Z,94134.91
2017-11-20T23:15:05.882Z,94130.13
2017-11-20T23:17:33.641Z,94122.45
2017-11-20T23:20:01.402Z,94113.16
2017-11-20T23:22:29.123Z,94109.99
2017-11-20T23:24:56.881Z,94116.19
2017-11-20T23:27:24.779Z,94105.29
2017-11-20T23:29:52.477Z,94107.75
2017-11-20T23:32:20.225Z,94098.36
2017-11-20T23:34:48.187Z,94094.63
2017-11-20T23:37:15.906Z,94104.64
2017-11-20T23:39:43.831Z,94109.28
2017-11-20T23:42:11.576Z,94103.34
2017-11-20T23:44:39.279Z,94104.60
2017-11-20T23:47:07.029Z,94103.48
2017-11-20T23:49:34.897Z,94104.87
2017-11-20T23:52:02.711Z,94102.47
2017-11-20T23:54:37.185Z,94103.73
2017-11-20T23:57:04.970Z,94097.85
2017-11-20T23:59:32.739Z,94093.08
